createdAt,value
2022-10-07T00:00:15.976Z,56.3
2022-10-07T00:05:16.021Z,56.4
2022-10-07T00:10:15.977Z,56.6
2022-10-07T00:15:16.018Z,56.5
2022-10-07T00:20:15.913Z,56.5
2022-10-07T00:25:16.109Z,56.3
2022-10-07T00:30:16.090Z,56.0
2022-10-07T00:35:16.015Z,55.9
2022-10-07T00:40:16.130Z,55.9
2022-10-07T00:45:16.138Z,55.9
2022-10-07T00:50:16.144Z,55.9
2022-10-07T00:55:16.094Z,55.9
2022-10-07T01:00:16.193Z,55.8
2022-10-07T01:05:16.159Z,55.7
2022-10-07T01:10:16.191Z,55.8
2022-10-07T01:15:16.178Z,55.7
2022-10-07T01:20:16.194Z,55.7
2022-10-07T01:25:16.099Z,55.6
2022-10-07T01:30:16.940Z,55.5
2022-10-07T01:35:16.109Z,55.4
2022-10-07T01:40:16.122Z,55.4
2022-10-07T01:45:16.434Z,55.9
2022-10-07T01:50:16.193Z,55.9
2022-10-07T01:55:16.208Z,55.9
2022-10-07T02:00:16.355Z,55.9
2022-10-07T02:05:16.366Z,55.6
2022-10-07T02:10:16.210Z,55.5
2022-10-07T02:15:16.268Z,55.4
2022-10-07T02:20:16.256Z,55.5
2022-10-07T02:25:16.278Z,55.5
2022-10-07T02:30:16.394Z,55.6
2022-10-07T02:35:16.271Z,55.6
2022-10-07T02:40:16.294Z,55.7
2022-10-07T02:45:16.492Z,55.7
2022-10-07T02:50:16.411Z,56.0
2022-10-07T02:55:16.361Z,56.1
2022-10-07T03:00:16.315Z,56.0
2022-10-07T03:05:16.323Z,55.9
2022-10-07T03:10:16.262Z,56.3
2022-10-07T03:15:16.497Z,56.3
2022-10-07T03:20:16.499Z,56.1
2022-10-07T03:25:16.407Z,56.1
2022-10-07T03:30:16.391Z,56.1
2022-10-07T03:35:16.504Z,56.3
2022-10-07T03:40:16.394Z,56.2
2022-10-07T03:45:16.448Z,56.1
2022-10-07T03:50:16.464Z,56.0
2022-10-07T03:55:16.463Z,56.0
2022-10-07T04:00:15.455Z,56.1
2022-10-07T04:05:15.414Z,56.1
2022-10-07T04:10:15.471Z,56.0
2022-10-07T04:15:15.542Z,56.0
2022-10-07T04:20:15.513Z,56.0
2022-10-07T04:25:15.559Z,56.0
2022-10-07T04:30:15.480Z,55.9
2022-10-07T04:35:15.628Z,55.9
2022-10-07T04:40:15.694Z,56.3
2022-10-07T04:45:15.511Z,56.0
2022-10-07T04:50:15.647Z,55.9
2022-10-07T04:55:15.571Z,55.7
2022-10-07T05:00:15.719Z,55.4
2022-10-07T05:05:15.778Z,55.7
2022-10-07T05:10:15.698Z,55.7
2022-10-07T05:15:15.784Z,55.8
2022-10-07T05:20:15.604Z,55.8
2022-10-07T05:25:15.681Z,55.9
2022-10-07T05:30:15.632Z,56.3
2022-10-07T05:35:15.802Z,56.1
2022-10-07T05:40:15.663Z,56.0
2022-10-07T05:45:15.678Z,55.9
2022-10-07T05:50:15.709Z,56.0
2022-10-07T05:55:15.648Z,55.9
2022-10-07T06:00:15.742Z,55.9
2022-10-07T06:05:15.765Z,55.9
2022-10-07T06:10:15.755Z,55.9
2022-10-07T06:15:15.739Z,55.9
2022-10-07T06:20:15.862Z,55.9
2022-10-07T06:25:15.745Z,55.9
2022-10-07T06:30:15.897Z,55.9
2022-10-07T06:35:15.852Z,55.9
2022-10-07T06:40:15.758Z,55.9
2022-10-07T06:45:15.828Z,55.9
2022-10-07T06:50:15.788Z,55.8
2022-10-07T06:55:15.953Z,55.7
2022-10-07T07:00:15.803Z,55.9
2022-10-07T07:05:15.841Z,56.0
2022-10-07T07:10:15.861Z,55.9
2022-10-07T07:15:15.909Z,55.9
2022-10-07T07:20:16.048Z,55.9
2022-10-07T07:25:15.904Z,55.9
2022-10-07T07:30:15.963Z,55.8
2022-10-07T07:35:15.993Z,55.8
2022-10-07T07:40:15.978Z,55.8
2022-10-07T07:45:16.104Z,55.7
2022-10-07T07:50:15.909Z,56.1
2022-10-07T07:55:16.061Z,55.8
2022-10-07T08:00:15.906Z,55.8
2022-10-07T08:05:20.134Z,55.7
2022-10-07T08:10:15.960Z,56.1
2022-10-07T08:15:15.913Z,55.8
2022-10-07T08:20:16.048Z,55.7
2022-10-07T08:25:16.012Z,55.7
2022-10-07T08:30:16.014Z,55.8
2022-10-07T08:35:15.991Z,55.7
2022-10-07T08:40:16.054Z,55.6
2022-10-07T08:45:16.153Z,55.6
2022-10-07T08:50:19.450Z,55.5
2022-10-07T08:55:16.025Z,55.5
2022-10-07T09:00:16.063Z,55.5
2022-10-07T09:05:16.395Z,55.8
2022-10-07T09:10:16.399Z,55.8
2022-10-07T09:15:16.257Z,55.8
2022-10-07T09:20:16.165Z,55.9
2022-10-07T09:25:16.097Z,55.8
2022-10-07T09:30:16.153Z,55.5
2022-10-07T09:35:16.146Z,55.4
2022-10-07T09:40:16.179Z,55.4
2022-10-07T09:45:16.237Z,55.4
2022-10-07T09:50:16.120Z,55.4
2022-10-07T09:55:16.154Z,55.7
2022-10-07T10:00:16.238Z,55.7
2022-10-07T10:05:16.297Z,55.3
2022-10-07T10:10:16.214Z,55.3
2022-10-07T10:15:16.204Z,55.7
2022-10-07T10:20:16.156Z,55.7
2022-10-07T10:25:16.262Z,55.7
2022-10-07T10:30:16.265Z,55.7
2022-10-07T10:35:16.237Z,55.4
2022-10-07T10:40:16.417Z,55.4
2022-10-07T10:45:16.448Z,55.3
2022-10-07T10:50:16.284Z,55.2
2022-10-07T10:55:16.371Z,55.2
2022-10-07T11:00:16.340Z,55.0
2022-10-07T11:05:16.387Z,55.0
2022-10-07T11:10:16.408Z,55.3
2022-10-07T11:15:16.321Z,55.3
2022-10-07T11:20:16.465Z,55.3
2022-10-07T11:25:16.407Z,55.4
2022-10-07T11:30:16.374Z,55.6
2022-10-07T11:35:16.697Z,55.7
2022-10-07T11:40:16.446Z,55.8
2022-10-07T11:45:16.480Z,55.9
2022-10-07T11:50:16.486Z,56.1
2022-10-07T11:55:16.400Z,55.9
2022-10-07T12:00:16.636Z,56.2
2022-10-07T12:05:16.434Z,56.4
2022-10-07T12:10:16.443Z,56.7
2022-10-07T12:15:16.487Z,56.8
2022-10-07T12:20:16.419Z,56.6
2022-10-07T12:25:16.443Z,56.8
2022-10-07T12:30:16.607Z,56.9
2022-10-07T12:35:16.497Z,57.0
2022-10-07T12:40:16.588Z,56.9
2022-10-07T12:45:16.583Z,57.3
2022-10-07T12:50:16.780Z,57.7
2022-10-07T12:55:16.522Z,57.8
2022-10-07T13:00:16.599Z,57.9
2022-10-07T13:05:16.603Z,58.5
2022-10-07T13:10:16.576Z,58.6
2022-10-07T13:15:16.598Z,58.6
2022-10-07T13:20:16.570Z,58.1
2022-10-07T13:25:16.640Z,58.5
2022-10-07T13:30:16.651Z,58.2
2022-10-07T13:35:16.817Z,57.7
2022-10-07T13:40:16.789Z,57.5
2022-10-07T13:45:16.700Z,57.5
2022-10-07T13:50:16.659Z,57.7
2022-10-07T13:55:16.669Z,57.9
2022-10-07T14:00:16.719Z,58.2
2022-10-07T14:05:16.771Z,58.5
2022-10-07T14:10:16.705Z,58.5
2022-10-07T14:15:16.690Z,58.6
2022-10-07T14:20:16.635Z,59.1
2022-10-07T14:25:16.771Z,59.2
2022-10-07T14:30:16.734Z,59.5
2022-10-07T14:35:16.892Z,60.1
2022-10-07T14:40:16.810Z,59.9
2022-10-07T14:45:16.815Z,60.2
2022-10-07T14:50:16.785Z,60.9
2022-10-07T14:55:16.782Z,61.3
2022-10-07T15:00:16.909Z,60.9
2022-10-07T15:05:16.973Z,60.7
2022-10-07T15:10:16.911Z,60.6
2022-10-07T15:15:16.789Z,61.1
2022-10-07T15:20:16.867Z,60.9
2022-10-07T15:25:16.901Z,60.7
2022-10-07T15:30:16.864Z,60.9
2022-10-07T15:35:16.961Z,61.2
2022-10-07T15:40:16.860Z,61.3
2022-10-07T15:45:16.901Z,61.0
2022-10-07T15:50:16.937Z,60.7
2022-10-07T15:55:16.878Z,60.4
2022-10-07T16:00:16.883Z,60.9
2022-10-07T16:05:16.883Z,61.0
2022-10-07T16:10:16.974Z,61.1
2022-10-07T16:15:17.023Z,60.7
2022-10-07T16:20:16.877Z,61.3
2022-10-07T16:25:16.969Z,61.0
2022-10-07T16:30:17.062Z,61.0
2022-10-07T16:35:16.948Z,61.2
2022-10-07T16:40:17.061Z,61.1
2022-10-07T16:45:17.283Z,61.3
2022-10-07T16:50:16.998Z,61.7
2022-10-07T16:55:17.006Z,61.4
2022-10-07T17:00:17.002Z,61.4
2022-10-07T17:05:17.084Z,61.7
2022-10-07T17:10:17.211Z,61.4
2022-10-07T17:15:17.040Z,61.5
2022-10-07T17:20:17.309Z,61.6
2022-10-07T17:25:17.126Z,61.1
2022-10-07T17:30:17.084Z,61.7
2022-10-07T17:35:17.113Z,61.4
2022-10-07T17:40:17.109Z,61.7
2022-10-07T17:45:17.124Z,61.9
2022-10-07T17:50:17.130Z,62.1
2022-10-07T17:55:17.033Z,62.3
2022-10-07T18:00:17.250Z,62.4
2022-10-07T18:05:17.105Z,62.5
2022-10-07T18:10:17.161Z,62.5
2022-10-07T18:15:17.180Z,62.5
2022-10-07T18:20:17.132Z,62.6
2022-10-07T18:25:17.156Z,62.7
2022-10-07T18:30:17.216Z,62.5
2022-10-07T18:35:17.281Z,62.7
2022-10-07T18:40:17.190Z,62.6
2022-10-07T18:45:17.318Z,62.7
2022-10-07T18:50:17.311Z,62.9
2022-10-07T18:55:17.239Z,63.1
2022-10-07T19:00:17.338Z,63.1
2022-10-07T19:05:17.278Z,62.7
2022-10-07T19:10:17.558Z,63.3
2022-10-07T19:15:17.446Z,63.4
2022-10-07T19:20:17.314Z,63.7
2022-10-07T19:25:17.372Z,63.3
2022-10-07T19:30:17.351Z,63.7
2022-10-07T19:35:15.551Z,63.6
2022-10-07T19:40:17.488Z,63.6
2022-10-07T19:45:17.563Z,63.6
2022-10-07T19:50:17.401Z,63.6
2022-10-07T19:55:17.361Z,63.6
2022-10-07T20:00:17.589Z,63.5
2022-10-07T20:05:15.387Z,63.4
2022-10-07T20:10:15.519Z,63.5
2022-10-07T20:15:15.472Z,63.6
2022-10-07T20:20:15.430Z,63.6
2022-10-07T20:25:15.394Z,63.7
2022-10-07T20:30:18.258Z,63.4
2022-10-07T20:35:15.470Z,63.4
2022-10-07T20:40:15.627Z,63.6
2022-10-07T20:45:15.572Z,63.4
2022-10-07T20:50:15.675Z,63.5
2022-10-07T20:55:15.515Z,63.3
2022-10-07T21:00:15.688Z,63.0
2022-10-07T21:05:15.459Z,63.0
2022-10-07T21:10:15.584Z,62.9
2022-10-07T21:15:15.489Z,62.8
2022-10-07T21:20:15.738Z,62.7
2022-10-07T21:25:15.504Z,62.7
2022-10-07T21:30:15.686Z,62.3
2022-10-07T21:35:15.601Z,62.2
2022-10-07T21:40:15.583Z,62.0
2022-10-07T21:45:15.567Z,62.2
2022-10-07T21:50:15.574Z,62.5
2022-10-07T21:55:15.714Z,62.3
2022-10-07T22:00:15.626Z,61.9
2022-10-07T22:05:15.603Z,61.9
2022-10-07T22:10:15.625Z,61.9
2022-10-07T22:15:15.675Z,61.7
2022-10-07T22:20:18.828Z,61.2
2022-10-07T22:25:15.678Z,61.1
2022-10-07T22:30:15.666Z,61.1
2022-10-07T22:35:15.611Z,61.0
2022-10-07T22:40:15.641Z,60.6
2022-10-07T22:45:15.766Z,60.9
2022-10-07T22:50:15.824Z,60.9
2022-10-07T22:55:15.712Z,60.7
2022-10-07T23:00:15.721Z,60.5
2022-10-07T23:05:15.745Z,60.4
2022-10-07T23:10:15.688Z,60.3
2022-10-07T23:15:15.776Z,60.2
2022-10-07T23:20:15.810Z,60.0
2022-10-07T23:25:15.829Z,59.7
2022-10-07T23:30:15.805Z,59.5
2022-10-07T23:35:15.822Z,59.1
2022-10-07T23:40:15.923Z,58.6
2022-10-07T23:45:15.869Z,58.3
2022-10-07T23:50:15.855Z,58.0
2022-10-07T23:55:15.947Z,57.9
